Time,TemperatureF,DewpointF,PressureIn,WindDirection,WindDirectionDegrees,WindSpeedMPH,WindSpeedGustMPH,Humidity,HourlyPrecipIn,Conditions,Clouds,dailyrainin,SolarRadiationWatts/m^2,SoftwareType,DateUTC
2013-02-17 00:02:00,54.0,11.0,30.02,SE,138,1.0,4.0,18,0.00,,,0.00,0,weatherlink.com 1.10,2013-02-17 07:02:00,
2013-02-17 00:17:00,53.9,10.0,30.02,ESE,117,4.0,5.0,17,0.00,,,0.00,0,weatherlink.com 1.10,2013-02-17 07:17:00,
2013-02-17 00:32:00,55.3,10.0,30.02,SE,126,0.0,5.0,16,0.00,,,0.00,0,weatherlink.com 1.10,2013-02-17 07:32:00,
2013-02-17 00:47:00,53.8,11.0,30.02,SE,126,0.0,2.0,18,0.00,,,0.00,0,weatherlink.com 1.10,2013-02-17 07:47:00,
2013-02-17 01:02:00,52.3,10.0,30.02,SE,126,0.0,1.0,18,0.00,,,0.00,0,weatherlink.com 1.10,2013-02-17 08:02:00,
2013-02-17 01:17:00,50.9,11.0,30.01,SE,128,0.0,2.0,20,0.00,,,0.00,0,weatherlink.com 1.10,2013-02-17 08:17:00,
2013-02-17 01:32:00,49.6,12.0,30.01,SE,128,0.0,1.0,22,0.00,,,0.00,0,weatherlink.com 1.10,2013-02-17 08:32:00,
2013-02-17 01:47:00,48.4,13.0,30.01,SE,127,0.0,2.0,24,0.00,,,0.00,0,weatherlink.com 1.10,2013-02-17 08:47:00,
2013-02-17 02:02:00,47.4,14.0,30.01,ESE,117,1.0,2.0,26,0.00,,,0.00,0,weatherlink.com 1.10,2013-02-17 09:02:00,
2013-02-17 02:17:00,46.8,15.0,30.01,ESE,117,0.0,1.0,28,0.00,,,0.00,0,weatherlink.com 1.10,2013-02-17 09:17:00,
2013-02-17 02:32:00,46.6,12.0,30.00,ESE,117,1.0,2.0,25,0.00,,,0.00,0,weatherlink.com 1.10,2013-02-17 09:32:00,
2013-02-17 02:47:00,48.0,13.0,30.00,ENE,76,1.0,4.0,24,0.00,,,0.00,0,weatherlink.com 1.10,2013-02-17 09:47:00,
2013-02-17 03:02:00,47.4,13.0,29.99,ENE,76,2.0,3.0,25,0.00,,,0.00,0,weatherlink.com 1.10,2013-02-17 10:02:00,
2013-02-17 03:17:00,44.8,16.0,29.99,NE,51,0.0,3.0,32,0.00,,,0.00,0,weatherlink.com 1.10,2013-02-17 10:17:00,
2013-02-17 03:32:00,43.0,15.0,29.98,NE,52,2.0,2.0,32,0.00,,,0.00,0,weatherlink.com 1.10,2013-02-17 10:32:00,
2013-02-17 03:47:00,42.7,15.0,29.98,NE,55,1.0,3.0,32,0.00,,,0.00,0,weatherlink.com 1.10,2013-02-17 10:47:00,
2013-02-17 04:02:00,43.1,14.0,29.98,East,101,2.0,6.0,31,0.00,,,0.00,0,weatherlink.com 1.10,2013-02-17 11:02:00,
2013-02-17 04:17:00,44.5,14.0,29.97,ESE,105,2.0,4.0,29,0.00,,,0.00,0,weatherlink.com 1.10,2013-02-17 11:17:00,
2013-02-17 04:32:00,44.5,14.0,29.97,ESE,105,2.0,3.0,29,0.00,,,0.00,0,weatherlink.com 1.10,2013-02-17 11:32:00,
2013-02-17 04:47:00,44.3,13.0,29.97,ESE,105,0.0,2.0,28,0.00,,,0.00,0,weatherlink.com 1.10,2013-02-17 11:47:00,
2013-02-17 05:02:00,43.3,14.0,29.97,ESE,105,1.0,3.0,31,0.00,,,0.00,0,weatherlink.com 1.10,2013-02-17 12:02:00,
2013-02-17 05:18:00,42.5,14.0,29.97,ESE,105,0.0,1.0,32,0.00,,,0.00,0,weatherlink.com 1.10,2013-02-17 12:18:00,
2013-02-17 05:33:00,43.8,13.0,29.97,ESE,105,0.0,0.0,29,0.00,,,0.00,0,weatherlink.com 1.10,2013-02-17 12:33:00,
2013-02-17 05:47:00,43.8,13.0,29.97,ESE,105,0.0,2.0,29,0.00,,,0.00,0,weatherlink.com 1.10,2013-02-17 12:47:00,
2013-02-17 06:02:00,43.4,14.0,29.97,ESE,105,0.0,1.0,30,0.00,,,0.00,0,weatherlink.com 1.10,2013-02-17 13:02:00,
2013-02-17 06:18:00,43.3,14.0,29.97,ESE,105,2.0,3.0,31,0.00,,,0.00,0,weatherlink.com 1.10,2013-02-17 13:18:00,
2013-02-17 06:33:00,43.3,15.0,29.97,ESE,105,0.0,2.0,32,0.00,,,0.00,0,weatherlink.com 1.10,2013-02-17 13:33:00,
2013-02-17 06:48:00,40.6,16.0,29.97,ESE,105,1.0,2.0,37,0.00,,,0.00,0,weatherlink.com 1.10,2013-02-17 13:48:00,
2013-02-17 07:03:00,39.2,17.0,29.97,ESE,105,0.0,1.0,41,0.00,,,0.00,5,weatherlink.com 1.10,2013-02-17 14:03:00,
2013-02-17 07:18:00,38.6,16.0,29.97,ESE,105,1.0,2.0,40,0.00,,,0.00,11,weatherlink.com 1.10,2013-02-17 14:18:00,
2013-02-17 07:33:00,41.4,16.0,29.97,ESE,106,1.0,2.0,36,0.00,,,0.00,11,weatherlink.com 1.10,2013-02-17 14:33:00,
2013-02-17 07:48:00,45.2,18.0,29.98,ESE,106,0.0,1.0,34,0.00,,,0.00,11,weatherlink.com 1.10,2013-02-17 14:48:00,
2013-02-17 08:19:00,48.3,19.0,29.98,NNE,22,0.0,2.0,31,0.00,,,0.00,11,weatherlink.com 1.10,2013-02-17 15:19:00,
2013-02-17 08:33:00,52.8,16.0,29.98,East,92,1.0,3.0,23,0.00,,,0.00,11,weatherlink.com 1.10,2013-02-17 15:33:00,
2013-02-17 08:48:00,55.9,15.0,29.99,ESE,104,0.0,1.0,20,0.00,,,0.00,11,weatherlink.com 1.10,2013-02-17 15:48:00,
2013-02-17 09:03:00,58.3,15.0,29.99,SW,223,0.0,1.0,18,0.00,,,0.00,11,weatherlink.com 1.10,2013-02-17 16:03:00,
2013-02-17 09:18:00,60.1,12.0,29.99,WNW,292,0.0,2.0,15,0.00,,,0.00,11,weatherlink.com 1.10,2013-02-17 16:18:00,
2013-02-17 09:33:00,61.1,13.0,29.99,WSW,244,3.0,4.0,15,0.00,,,0.00,11,weatherlink.com 1.10,2013-02-17 16:33:00,
2013-02-17 09:48:00,61.4,16.0,29.99,West,276,3.0,4.0,17,0.00,,,0.00,11,weatherlink.com 1.10,2013-02-17 16:48:00,
2013-02-17 10:03:00,61.4,17.0,29.99,WSW,257,4.0,5.0,18,0.00,,,0.00,11,weatherlink.com 1.10,2013-02-17 17:03:00,
2013-02-17 10:18:00,62.8,17.0,29.99,West,269,3.0,4.0,17,0.00,,,0.00,11,weatherlink.com 1.10,2013-02-17 17:18:00,
2013-02-17 10:33:00,64.2,15.0,29.98,West,259,3.0,6.0,15,0.00,,,0.00,11,weatherlink.com 1.10,2013-02-17 17:33:00,
2013-02-17 10:48:00,65.9,14.0,29.98,West,260,4.0,6.0,13,0.00,,,0.00,11,weatherlink.com 1.10,2013-02-17 17:48:00,
2013-02-17 11:03:00,67.2,9.0,29.98,West,267,2.0,5.0,10,0.00,,,0.00,11,weatherlink.com 1.10,2013-02-17 18:03:00,
2013-02-17 11:18:00,68.5,12.0,29.98,West,264,5.0,7.0,11,0.00,,,0.00,11,weatherlink.com 1.10,2013-02-17 18:18:00,
2013-02-17 11:34:00,69.3,10.0,29.97,WNW,296,2.0,8.0,10,0.00,,,0.00,11,weatherlink.com 1.10,2013-02-17 18:34:00,
2013-02-17 11:48:00,69.3,12.0,29.97,WNW,302,6.0,10.0,11,0.00,,,0.00,11,weatherlink.com 1.10,2013-02-17 18:48:00,
2013-02-17 12:03:00,69.4,12.0,29.96,WSW,248,6.0,11.0,11,0.00,,,0.00,11,weatherlink.com 1.10,2013-02-17 19:03:00,
2013-02-17 12:18:00,70.1,11.0,29.95,West,281,5.0,12.0,10,0.00,,,0.00,11,weatherlink.com 1.10,2013-02-17 19:18:00,
2013-02-17 12:34:00,70.6,11.0,29.95,WSW,257,6.0,12.0,10,0.00,,,0.00,11,weatherlink.com 1.10,2013-02-17 19:34:00,
2013-02-17 12:48:00,70.8,14.0,29.94,West,265,7.0,13.0,11,0.00,,,0.00,11,weatherlink.com 1.10,2013-02-17 19:48:00,
2013-02-17 13:03:00,71.2,12.0,29.93,WSW,253,5.0,11.0,10,0.00,,,0.00,11,weatherlink.com 1.10,2013-02-17 20:03:00,
2013-02-17 13:19:00,71.7,12.0,29.92,WNW,283,6.0,15.0,10,0.00,,,0.00,11,weatherlink.com 1.10,2013-02-17 20:19:00,
2013-02-17 13:49:00,72.5,10.0,29.90,West,267,11.0,17.0,9,0.00,,,0.00,11,weatherlink.com 1.10,2013-02-17 20:49:00,
2013-02-17 14:04:00,72.7,2.0,29.89,WSW,238,9.0,20.0,6,0.00,,,0.00,11,weatherlink.com 1.10,2013-02-17 21:04:00,
2013-02-17 14:19:00,73.4,2.0,29.89,SW,236,10.0,15.0,6,0.00,,,0.00,11,weatherlink.com 1.10,2013-02-17 21:19:00,
2013-02-17 14:34:00,73.2,-2.0,29.88,SW,236,12.0,18.0,5,0.00,,,0.00,11,weatherlink.com 1.10,2013-02-17 21:34:00,
2013-02-17 14:49:00,72.7,8.0,29.88,WNW,292,10.0,15.0,8,0.00,,,0.00,11,weatherlink.com 1.10,2013-02-17 21:49:00,
2013-02-17 15:04:00,72.7,5.0,29.87,WNW,286,4.0,15.0,7,0.00,,,0.00,11,weatherlink.com 1.10,2013-02-17 22:04:00,
2013-02-17 15:19:00,73.1,2.0,29.87,WNW,283,9.0,14.0,6,0.00,,,0.00,11,weatherlink.com 1.10,2013-02-17 22:19:00,
2013-02-17 15:34:00,72.7,-2.0,29.87,West,268,9.0,14.0,5,0.00,,,0.00,11,weatherlink.com 1.10,2013-02-17 22:34:00,
2013-02-17 15:49:00,73.0,2.0,29.88,WSW,238,11.0,18.0,6,0.00,,,0.00,11,weatherlink.com 1.10,2013-02-17 22:49:00,
2013-02-17 16:04:00,72.8,2.0,29.88,WSW,253,11.0,19.0,6,0.00,,,0.00,11,weatherlink.com 1.10,2013-02-17 23:04:00,
2013-02-17 16:19:00,72.0,4.0,29.88,West,263,4.0,17.0,7,0.00,,,0.00,11,weatherlink.com 1.10,2013-02-17 23:19:00,
2013-02-17 16:34:00,71.5,4.0,29.87,WNW,287,11.0,20.0,7,0.00,,,0.00,11,weatherlink.com 1.10,2013-02-17 23:34:00,
2013-02-17 16:49:00,71.6,4.0,29.88,West,264,13.0,16.0,7,0.00,,,0.00,11,weatherlink.com 1.10,2013-02-17 23:49:00,
2013-02-17 17:05:00,71.2,4.0,29.88,WNW,286,8.0,17.0,7,0.00,,,0.00,11,weatherlink.com 1.10,2013-02-18 00:05:00,
2013-02-17 17:20:00,70.6,6.0,29.88,NW,313,6.0,16.0,8,0.00,,,0.00,11,weatherlink.com 1.10,2013-02-18 00:20:00,
2013-02-17 17:35:00,70.1,6.0,29.89,West,262,12.0,16.0,8,0.00,,,0.00,11,weatherlink.com 1.10,2013-02-18 00:35:00,
2013-02-17 17:50:00,69.1,5.0,29.89,West,273,6.0,16.0,8,0.00,,,0.00,11,weatherlink.com 1.10,2013-02-18 00:50:00,
2013-02-17 18:05:00,67.8,7.0,29.89,West,267,10.0,13.0,9,0.00,,,0.00,11,weatherlink.com 1.10,2013-02-18 01:05:00,
2013-02-17 18:20:00,66.5,8.0,29.90,West,265,4.0,11.0,10,0.00,,,0.00,11,weatherlink.com 1.10,2013-02-18 01:20:00,
2013-02-17 18:35:00,65.2,9.0,29.90,WNW,284,5.0,12.0,11,0.00,,,0.00,11,weatherlink.com 1.10,2013-02-18 01:35:00,
2013-02-17 18:50:00,64.3,10.0,29.91,West,271,5.0,9.0,12,0.00,,,0.00,11,weatherlink.com 1.10,2013-02-18 01:50:00,
2013-02-17 19:05:00,63.4,12.0,29.91,West,265,5.0,9.0,13,0.00,,,0.00,11,weatherlink.com 1.10,2013-02-18 02:05:00,
2013-02-17 19:20:00,61.4,12.0,29.92,NW,324,4.0,8.0,14,0.00,,,0.00,0,weatherlink.com 1.10,2013-02-18 02:20:00,
2013-02-17 19:36:00,60.4,12.0,29.93,NW,307,4.0,7.0,15,0.00,,,0.00,0,weatherlink.com 1.10,2013-02-18 02:36:00,
2013-02-17 19:50:00,59.2,13.0,29.93,NW,309,3.0,7.0,16,0.00,,,0.00,0,weatherlink.com 1.10,2013-02-18 02:50:00,
2013-02-17 20:05:00,58.6,14.0,29.93,NW,307,3.0,8.0,17,0.00,,,0.00,0,weatherlink.com 1.10,2013-02-18 03:05:00,
2013-02-17 20:20:00,57.9,14.0,29.94,WNW,300,3.0,5.0,18,0.00,,,0.00,0,weatherlink.com 1.10,2013-02-18 03:20:00,
2013-02-17 20:36:00,57.8,16.0,29.95,NW,304,3.0,6.0,19,0.00,,,0.00,0,weatherlink.com 1.10,2013-02-18 03:36:00,
2013-02-17 20:51:00,57.4,15.0,29.96,WNW,294,3.0,5.0,19,0.00,,,0.00,0,weatherlink.com 1.10,2013-02-18 03:51:00,
2013-02-17 21:06:00,56.7,16.0,29.96,WNW,302,2.0,5.0,20,0.00,,,0.00,0,weatherlink.com 1.10,2013-02-18 04:06:00,
2013-02-17 21:21:00,56.1,16.0,29.97,NW,304,3.0,5.0,21,0.00,,,0.00,0,weatherlink.com 1.10,2013-02-18 04:21:00,
2013-02-17 21:36:00,55.1,17.0,29.97,WNW,302,1.0,3.0,22,0.00,,,0.00,0,weatherlink.com 1.10,2013-02-18 04:36:00,
2013-02-17 21:51:00,53.8,18.0,29.98,WNW,302,1.0,3.0,24,0.00,,,0.00,0,weatherlink.com 1.10,2013-02-18 04:51:00,
2013-02-17 22:06:00,52.8,18.0,29.98,WNW,301,2.0,2.0,25,0.00,,,0.00,0,weatherlink.com 1.10,2013-02-18 05:06:00,
2013-02-17 22:21:00,52.1,18.0,29.98,WNW,301,0.0,1.0,26,0.00,,,0.00,0,weatherlink.com 1.10,2013-02-18 05:21:00,
2013-02-17 22:36:00,50.1,18.0,29.98,WNW,301,0.0,2.0,28,0.00,,,0.00,0,weatherlink.com 1.10,2013-02-18 05:36:00,
2013-02-17 22:51:00,49.4,18.0,29.98,WNW,301,0.0,1.0,29,0.00,,,0.00,0,weatherlink.com 1.10,2013-02-18 05:51:00,
2013-02-17 23:06:00,48.7,18.0,29.99,WNW,301,0.0,0.0,30,0.00,,,0.00,0,weatherlink.com 1.10,2013-02-18 06:06:00,
2013-02-17 23:21:00,48.8,18.0,29.99,West,268,1.0,3.0,30,0.00,,,0.00,0,weatherlink.com 1.10,2013-02-18 06:21:00,
2013-02-17 23:36:00,48.8,18.0,30.00,West,267,1.0,2.0,30,0.00,,,0.00,0,weatherlink.com 1.10,2013-02-18 06:36:00,
2013-02-17 23:51:00,48.9,18.0,30.00,West,262,1.0,2.0,29,0.00,,,0.00,0,weatherlink.com 1.10,2013-02-18 06:51:00,